Time;durP1;ratioP1;P1;durP2;ratioP2;P2;SDS_P1;SDS_P2;PMS_P1;PMS_P2;Temp;Humidity;BMP_temperature;BMP_pressure;BME280_temperature;BME280_humidity;BME280_pressure;Samples;Min_cycle;Max_cycle;Signal;HPM_P1;HPM_P2
2024/01/11 00:01:36;;;;;;;3.40;3.17;;;0.00;77.70;;;;;;4968981;28;20249;-81
2024/01/11 00:04:05;;;;;;;2.93;2.73;;;-0.10;77.90;;;;;;4963416;28;20690;-81
2024/01/11 00:06:33;;;;;;;16.00;3.03;;;-0.10;78.00;;;;;;4967500;28;20212;-82
2024/01/11 00:09:02;;;;;;;4.23;2.83;;;-0.10;78.00;;;;;;4978784;28;20233;-82
2024/01/11 00:11:31;;;;;;;2.73;2.57;;;-0.20;78.10;;;;;;4967517;28;20627;-83
2024/01/11 00:13:59;;;;;;;2.57;2.23;;;-0.20;78.30;;;;;;4970796;28;20267;-84
2024/01/11 00:16:29;;;;;;;1.50;1.40;;;-0.20;78.20;;;;;;4967113;28;20209;-85
2024/01/11 00:18:58;;;;;;;10.73;2.90;;;-0.10;78.00;;;;;;4965328;28;20206;-84
2024/01/11 00:21:27;;;;;;;2.40;2.23;;;-0.20;78.10;;;;;;4970686;28;20228;-84
2024/01/11 00:23:56;;;;;;;3.17;2.63;;;-0.20;78.00;;;;;;4967010;28;20194;-84
2024/01/11 00:26:24;;;;;;;6.83;3.03;;;-0.10;78.20;;;;;;4965760;28;20292;-83
2024/01/11 00:28:53;;;;;;;1.83;1.70;;;-0.20;78.30;;;;;;4971183;28;20296;-85
2024/01/11 00:31:21;;;;;;;8.13;4.07;;;-0.20;78.20;;;;;;4967501;28;20212;-85
2024/01/11 00:33:52;;;;;;;3.67;3.37;;;-0.20;78.20;;;;;;4966365;28;20201;-84
2024/01/11 00:36:23;;;;;;;6.20;3.30;;;-0.20;78.30;;;;;;4969124;28;20228;-85
2024/01/11 00:38:52;;;;;;;6.90;3.00;;;-0.20;78.30;;;;;;4976145;28;20228;-85
2024/01/11 00:41:20;;;;;;;5.90;3.30;;;-0.20;78.20;;;;;;4972079;28;20451;-85
2024/01/11 00:43:49;;;;;;;3.33;2.67;;;-0.30;78.20;;;;;;4969843;28;20475;-84
2024/01/11 00:46:18;;;;;;;5.73;3.17;;;-0.30;78.20;;;;;;4969901;28;20213;-85
2024/01/11 00:48:46;;;;;;;1.40;1.37;;;-0.20;78.20;;;;;;4971665;28;20209;-85
2024/01/11 00:51:16;;;;;;;3.00;1.43;;;-0.20;78.20;;;;;;4976265;28;20226;-84
2024/01/11 00:53:45;;;;;;;1.23;1.03;;;-0.20;78.00;;;;;;4971524;28;20212;-85
2024/01/11 00:56:17;;;;;;;1.67;1.57;;;-0.20;78.00;;;;;;4973653;28;20204;-85
2024/01/11 00:58:46;;;;;;;4.13;2.23;;;-0.20;78.00;;;;;;4975391;28;20270;-87
2024/01/11 01:01:14;;;;;;;11.13;3.23;;;-0.20;77.90;;;;;;4973715;28;20206;-87
2024/01/11 01:03:43;;;;;;;1.63;1.53;;;-0.20;77.90;;;;;;4973492;28;20287;-86
2024/01/11 01:06:13;;;;;;;2.53;2.33;;;-0.20;77.80;;;;;;4967792;28;20295;-86
2024/01/11 01:08:43;;;;;;;2.70;1.30;;;-0.20;77.70;;;;;;4972321;28;20219;-84
2024/01/11 01:11:12;;;;;;;4.60;2.77;;;-0.10;77.70;;;;;;4973565;28;20231;-84
2024/01/11 01:13:40;;;;;;;8.53;3.00;;;-0.10;77.70;;;;;;4969438;28;20193;-86
2024/01/11 01:16:09;;;;;;;3.30;3.10;;;-0.10;77.60;;;;;;4977622;28;20229;-84
2024/01/11 01:18:37;;;;;;;2.27;2.07;;;0.00;77.60;;;;;;4973289;28;20231;-85
2024/01/11 01:21:06;;;;;;;4.60;4.20;;;0.00;77.50;;;;;;4971279;28;20213;-84
2024/01/11 01:23:35;;;;;;;3.13;2.83;;;0.00;77.30;;;;;;4967520;28;20258;-86
2024/01/11 01:26:05;;;;;;;2.20;1.63;;;0.10;77.30;;;;;;4966420;28;20230;-84
2024/01/11 01:28:36;;;;;;;2.83;2.53;;;0.10;77.20;;;;;;4975505;28;20197;-82
2024/01/11 01:31:04;;;;;;;2.67;2.43;;;0.10;77.00;;;;;;4970931;28;20641;-83
2024/01/11 01:33:33;;;;;;;2.10;1.53;;;0.10;76.80;;;;;;4976510;28;20638;-83
2024/01/11 01:36:02;;;;;;;3.73;2.80;;;0.20;76.80;;;;;;4960950;28;20988;-84
2024/01/11 01:38:31;;;;;;;1.83;1.30;;;0.20;76.70;;;;;;4973877;28;20204;-84
2024/01/11 01:41:00;;;;;;;3.73;2.17;;;0.20;76.60;;;;;;4976295;28;20261;-85
2024/01/11 01:43:30;;;;;;;1.57;1.47;;;0.20;76.30;;;;;;4974823;28;20330;-84
2024/01/11 01:45:59;;;;;;;3.30;3.00;;;0.20;76.20;;;;;;4974440;28;20201;-84
2024/01/11 01:48:28;;;;;;;2.13;1.93;;;0.10;76.10;;;;;;4971001;28;20206;-83
2024/01/11 01:50:57;;;;;;;3.93;1.77;;;0.20;76.20;;;;;;4975543;28;20245;-84
2024/01/11 01:53:29;;;;;;;3.30;2.40;;;0.20;76.20;;;;;;4970025;28;20566;-84
2024/01/11 01:55:58;;;;;;;2.53;2.33;;;0.20;76.20;;;;;;4976675;28;20216;-82
2024/01/11 01:58:27;;;;;;;3.17;2.97;;;0.20;76.10;;;;;;4971012;28;20201;-83
2024/01/11 02:00:58;;;;;;;8.70;3.70;;;0.20;76.00;;;;;;4973422;28;20226;-83
2024/01/11 02:03:29;;;;;;;3.60;1.90;;;0.20;75.90;;;;;;4967681;28;20205;-85
2024/01/11 02:05:58;;;;;;;2.33;2.17;;;0.20;75.80;;;;;;4970668;28;20213;-83
2024/01/11 02:08:28;;;;;;;2.37;2.17;;;0.20;75.80;;;;;;4973229;28;20221;-85
2024/01/11 02:10:57;;;;;;;5.80;2.33;;;0.20;75.80;;;;;;4970305;28;20210;-84
2024/01/11 02:13:26;;;;;;;5.17;2.83;;;0.20;75.80;;;;;;4970448;28;20577;-85
2024/01/11 02:15:55;;;;;;;3.40;3.10;;;0.10;75.50;;;;;;4973377;28;20206;-85
2024/01/11 02:18:25;;;;;;;3.23;2.30;;;0.10;75.60;;;;;;4972020;28;20230;-85
2024/01/11 02:20:54;;;;;;;3.57;2.73;;;0.00;75.50;;;;;;4971507;28;20206;-85
2024/01/11 02:23:27;;;;;;;10.43;4.37;;;0.00;75.60;;;;;;4972064;28;20261;-85
2024/01/11 02:25:57;;;;;;;1.53;1.43;;;0.00;75.60;;;;;;4975054;28;20216;-85
2024/01/11 02:28:26;;;;;;;2.60;2.40;;;0.00;75.70;;;;;;4974289;28;20559;-84
2024/01/11 02:30:55;;;;;;;2.10;1.90;;;-0.10;75.80;;;;;;4971915;28;20229;-84
2024/01/11 02:33:24;;;;;;;2.30;2.00;;;-0.10;76.00;;;;;;4974163;28;20469;-83
2024/01/11 02:35:52;;;;;;;1.67;1.60;;;-0.10;75.90;;;;;;4976538;28;20202;-82
2024/01/11 02:38:21;;;;;;;4.10;2.07;;;-0.10;75.90;;;;;;4974379;28;20201;-82
2024/01/11 02:40:51;;;;;;;3.93;3.57;;;-0.20;76.00;;;;;;4974662;28;20647;-83
2024/01/11 02:43:21;;;;;;;3.87;3.10;;;-0.20;76.10;;;;;;4964875;28;20201;-83
2024/01/11 02:45:49;;;;;;;2.97;2.47;;;-0.20;76.40;;;;;;4973113;28;20201;-82
2024/01/11 02:48:18;;;;;;;2.80;2.60;;;-0.30;76.60;;;;;;4977047;28;20205;-83
2024/01/11 02:50:46;;;;;;;4.30;2.83;;;-0.30;76.60;;;;;;4967306;28;20253;-83
2024/01/11 02:53:15;;;;;;;2.63;2.50;;;-0.40;76.60;;;;;;4963155;28;20202;-83
2024/01/11 02:55:44;;;;;;;3.13;2.50;;;-0.50;76.80;;;;;;4974606;28;20296;-82
2024/01/11 02:58:12;;;;;;;3.40;2.53;;;-0.40;76.90;;;;;;4974722;28;20692;-82
2024/01/11 03:00:43;;;;;;;4.70;3.63;;;-0.50;77.00;;;;;;4966564;28;20229;-82
2024/01/11 03:03:12;;;;;;;1.97;1.87;;;-0.60;77.20;;;;;;4969529;28;20206;-83
2024/01/11 03:05:41;;;;;;;6.17;3.93;;;-0.60;77.20;;;;;;4984005;28;20197;-82
2024/01/11 03:08:09;;;;;;;1.80;1.70;;;-0.60;77.20;;;;;;4967648;28;20201;-83
2024/01/11 03:10:39;;;;;;;2.53;2.20;;;-0.60;77.30;;;;;;4976002;28;20656;-82
2024/01/11 03:13:08;;;;;;;2.10;1.97;;;-0.70;77.40;;;;;;4968080;28;20929;-83
2024/01/11 03:15:37;;;;;;;2.60;2.40;;;-0.60;77.50;;;;;;4963953;28;20324;-81
2024/01/11 03:18:07;;;;;;;13.87;2.60;;;-0.70;77.50;;;;;;4963427;28;20217;-83
2024/01/11 03:20:36;;;;;;;2.53;2.33;;;-0.80;77.50;;;;;;4966407;28;20201;-82
2024/01/11 03:23:05;;;;;;;3.00;2.77;;;-0.80;77.60;;;;;;4969773;28;21000;-84
2024/01/11 03:25:34;;;;;;;3.87;3.03;;;-0.80;77.50;;;;;;4966007;28;20322;-84
2024/01/11 03:28:02;;;;;;;2.23;2.03;;;-0.80;77.50;;;;;;4967363;28;20215;-84
2024/01/11 03:30:31;;;;;;;3.17;2.80;;;-0.80;77.50;;;;;;4967247;28;20205;-84
2024/01/11 03:33:00;;;;;;;2.67;2.47;;;-0.80;77.70;;;;;;4970287;28;20201;-83
2024/01/11 03:35:30;;;;;;;2.70;2.50;;;-0.90;77.70;;;;;;4969700;28;20329;-85
2024/01/11 03:37:59;;;;;;;1.87;1.77;;;-0.80;77.70;;;;;;4963786;28;20216;-84
2024/01/11 03:40:27;;;;;;;2.50;2.37;;;-0.90;78.50;;;;;;4963566;28;20677;-85
2024/01/11 03:42:56;;;;;;;7.03;2.97;;;-0.90;77.70;;;;;;4965725;28;20174;-84
2024/01/11 03:45:25;;;;;;;1.53;1.43;;;-0.80;77.70;;;;;;4965645;28;20228;-86
2024/01/11 03:47:53;;;;;;;2.63;2.40;;;-0.80;77.70;;;;;;4968255;28;20208;-86
2024/01/11 03:50:22;;;;;;;2.27;2.07;;;-0.80;77.70;;;;;;4965704;28;20271;-84
2024/01/11 03:52:52;;;;;;;5.57;2.50;;;-0.90;77.60;;;;;;4968580;28;20224;-84
2024/01/11 03:55:21;;;;;;;4.77;4.37;;;-0.90;77.70;;;;;;4969272;28;20198;-83
2024/01/11 03:57:50;;;;;;;1.17;1.13;;;-0.90;77.80;;;;;;4972889;28;20217;-84
2024/01/11 04:00:18;;;;;;;2.10;1.97;;;-0.90;77.80;;;;;;4977945;28;20345;-84
2024/01/11 04:02:47;;;;;;;5.90;3.60;;;-0.90;77.90;;;;;;4970938;28;20216;-85
2024/01/11 04:05:16;;;;;;;3.53;3.23;;;-0.90;77.80;;;;;;4967810;28;20209;-85
2024/01/11 04:07:45;;;;;;;4.43;3.17;;;-1.00;77.80;;;;;;4968042;28;20252;-85
2024/01/11 04:10:19;;;;;;;4.43;4.03;;;-1.00;77.90;;;;;;4968585;28;20574;-85
2024/01/11 04:12:48;;;;;;;2.47;2.30;;;-1.00;78.00;;;;;;4971546;28;20244;-85
2024/01/11 04:15:16;;;;;;;11.70;4.63;;;-1.00;78.00;;;;;;4962950;28;20213;-84
2024/01/11 04:17:45;;;;;;;2.33;2.20;;;-1.00;77.90;;;;;;4968094;28;20201;-84
2024/01/11 04:20:14;;;;;;;5.30;1.97;;;-0.90;78.00;;;;;;4967700;28;20220;-85
2024/01/11 04:22:43;;;;;;;3.77;3.33;;;-1.00;78.00;;;;;;4968417;28;20221;-84
2024/01/11 04:25:11;;;;;;;3.23;2.93;;;-1.00;78.10;;;;;;4974653;28;20184;-85
2024/01/11 04:27:42;;;;;;;4.20;3.80;;;-1.00;78.20;;;;;;4970651;28;20205;-84
2024/01/11 04:30:11;;;;;;;3.07;2.33;;;-1.10;78.30;;;;;;4969589;28;20204;-86
2024/01/11 04:32:40;;;;;;;5.47;4.00;;;-1.10;78.30;;;;;;4968796;28;20205;-84
2024/01/11 04:35:10;;;;;;;4.40;2.83;;;-1.00;78.30;;;;;;4973761;28;20373;-84
2024/01/11 04:37:39;;;;;;;5.27;3.27;;;-1.00;78.30;;;;;;4970731;28;20204;-85
2024/01/11 04:40:09;;;;;;;1.67;1.57;;;-1.00;78.20;;;;;;4969245;28;20208;-85
2024/01/11 04:42:37;;;;;;;3.87;1.77;;;-1.00;78.20;;;;;;4972247;28;20716;-84
2024/01/11 04:45:08;;;;;;;5.87;3.97;;;-1.00;78.30;;;;;;4968274;28;20255;-85
2024/01/11 04:47:37;;;;;;;3.47;2.47;;;-1.10;78.20;;;;;;4966873;28;20333;-81
2024/01/11 04:50:07;;;;;;;2.37;2.27;;;-1.10;78.30;;;;;;4963950;28;20196;-80
2024/01/11 04:52:36;;;;;;;4.53;2.40;;;-1.10;78.30;;;;;;4962184;28;20726;-81
2024/01/11 04:55:05;;;;;;;2.07;1.97;;;-1.20;78.40;;;;;;4962312;28;20265;-80
2024/01/11 04:57:33;;;;;;;7.00;2.20;;;-1.20;78.50;;;;;;4964182;28;20580;-81
2024/01/11 05:00:02;;;;;;;6.60;5.40;;;-1.20;78.60;;;;;;4972144;28;20223;-81
2024/01/11 05:02:36;;;;;;;1.30;1.30;;;-1.20;78.60;;;;;;4967833;28;20205;-83
2024/01/11 05:05:06;;;;;;;2.27;2.13;;;-1.20;78.70;;;;;;4967015;28;20300;-82
2024/01/11 05:07:35;;;;;;;2.50;2.33;;;-1.30;78.80;;;;;;4964465;28;20225;-87
2024/01/11 05:10:05;;;;;;;6.37;5.00;;;-1.20;78.80;;;;;;4969704;28;20680;-82
2024/01/11 05:12:34;;;;;;;7.10;3.53;;;-1.20;78.70;;;;;;4964195;28;20894;-88
2024/01/11 05:15:07;;;;;;;3.47;3.27;;;-1.20;78.70;;;;;;4970323;28;20647;-87
2024/01/11 05:17:38;;;;;;;2.83;2.60;;;-1.20;78.70;;;;;;4965884;28;20205;-81
2024/01/11 05:20:08;;;;;;;8.00;4.03;;;-1.20;78.60;;;;;;4965095;28;20201;-79
2024/01/11 05:22:37;;;;;;;4.60;4.13;;;-1.10;78.70;;;;;;4966034;28;20197;-82
2024/01/11 05:25:09;;;;;;;3.03;2.73;;;-1.20;78.60;;;;;;4965186;28;20208;-83
2024/01/11 05:27:42;;;;;;;3.20;2.27;;;-1.10;78.60;;;;;;4972753;28;20273;-93
2024/01/11 05:30:14;;;;;;;5.23;4.23;;;-1.10;78.50;;;;;;4974490;28;20308;-91
2024/01/11 05:32:49;;;;;;;3.73;3.30;;;-1.20;78.40;;;;;;4969841;28;20590;-85
2024/01/11 05:35:18;;;;;;;6.97;5.20;;;-1.20;78.30;;;;;;4966425;28;20216;-87
2024/01/11 05:37:47;;;;;;;4.13;3.63;;;-1.10;78.40;;;;;;4974249;28;20202;-82
2024/01/11 05:40:16;;;;;;;3.07;2.87;;;-1.20;78.40;;;;;;4975278;28;20205;-83
2024/01/11 05:42:45;;;;;;;2.17;2.07;;;-1.20;78.40;;;;;;4969504;28;20267;-86
2024/01/11 05:45:16;;;;;;;2.40;2.30;;;-1.20;78.40;;;;;;4970131;28;20224;-92
2024/01/11 05:47:51;;;;;;;3.43;3.13;;;-1.20;78.50;;;;;;4974972;28;20197;-93
2024/01/11 05:50:20;;;;;;;2.43;2.23;;;-1.20;78.50;;;;;;4973564;28;20204;-89
2024/01/11 05:52:53;;;;;;;17.20;4.37;;;-1.30;78.40;;;;;;4973349;28;20461;-84
2024/01/11 05:55:22;;;;;;;5.20;3.57;;;-1.20;78.60;;;;;;4974476;28;21005;-88
2024/01/11 05:57:51;;;;;;;3.30;2.20;;;-1.20;78.60;;;;;;4971795;28;20239;-83
2024/01/11 06:00:20;;;;;;;2.77;2.50;;;-1.20;78.60;;;;;;4973491;28;20229;-83
2024/01/11 06:02:50;;;;;;;1.27;1.20;;;-1.20;78.60;;;;;;4974449;28;20349;-85
2024/01/11 06:05:19;;;;;;;2.23;2.13;;;-1.10;78.60;;;;;;4977697;28;20247;-86
2024/01/11 06:07:48;;;;;;;6.73;3.47;;;-1.10;78.70;;;;;;4973964;28;20286;-85
2024/01/11 06:10:17;;;;;;;6.17;3.13;;;-1.10;78.70;;;;;;4966761;28;20206;-85
2024/01/11 06:12:45;;;;;;;1.40;1.33;;;-1.10;78.70;;;;;;4976930;28;20274;-85
2024/01/11 06:15:14;;;;;;;4.87;2.90;;;-1.00;78.70;;;;;;4980221;28;20218;-93
2024/01/11 06:17:43;;;;;;;11.50;5.57;;;-1.00;78.70;;;;;;4983013;28;20198;-85
2024/01/11 06:20:14;;;;;;;4.13;3.77;;;-1.00;78.80;;;;;;4980868;28;20271;-84
2024/01/11 06:22:43;;;;;;;3.17;2.87;;;-0.90;78.70;;;;;;4979288;28;20573;-86
2024/01/11 06:25:13;;;;;;;1.43;1.37;;;-0.90;78.60;;;;;;4967322;28;20292;-82
2024/01/11 06:27:44;;;;;;;2.27;2.17;;;-0.90;78.60;;;;;;4977695;28;20208;-82
2024/01/11 06:30:13;;;;;;;3.43;3.13;;;-0.80;78.60;;;;;;4976029;28;20272;-81
2024/01/11 06:32:42;;;;;;;6.07;2.27;;;-0.80;78.40;;;;;;4983045;28;20224;-81
2024/01/11 06:35:13;;;;;;;2.40;2.20;;;-0.80;78.30;;;;;;4981583;28;20267;-81
2024/01/11 06:37:41;;;;;;;3.40;2.23;;;-0.70;79.10;;;;;;4971595;28;20217;-81
2024/01/11 06:40:11;;;;;;;4.10;3.70;;;-0.70;78.20;;;;;;4972911;28;20720;-81
2024/01/11 06:42:40;;;;;;;3.40;3.13;;;-0.60;78.20;;;;;;4976674;28;20835;-82
2024/01/11 06:45:10;;;;;;;4.37;3.20;;;-0.70;78.20;;;;;;4984854;28;20210;-82
2024/01/11 06:47:38;;;;;;;3.63;2.40;;;-0.60;78.20;;;;;;4977507;28;20213;-81
2024/01/11 06:50:08;;;;;;;3.13;2.87;;;-0.60;78.00;;;;;;4974215;28;20678;-81
2024/01/11 06:52:38;;;;;;;2.73;1.80;;;-0.50;78.10;;;;;;4981782;28;20910;-80
2024/01/11 06:55:08;;;;;;;3.03;2.43;;;-0.40;78.00;;;;;;4973058;28;20201;-81
2024/01/11 06:57:37;;;;;;;3.00;2.80;;;-0.30;78.00;;;;;;4968515;28;20220;-80
2024/01/11 07:00:07;;;;;;;3.37;3.13;;;-0.30;78.30;;;;;;4973634;28;20233;-81
2024/01/11 07:02:36;;;;;;;2.00;1.83;;;-0.20;78.00;;;;;;4971865;28;20202;-82
2024/01/11 07:05:05;;;;;;;4.60;3.77;;;-0.10;77.90;;;;;;4969763;28;21600;-82
2024/01/11 07:07:33;;;;;;;3.33;3.07;;;-0.10;77.60;;;;;;4966850;28;20248;-82
2024/01/11 07:10:05;;;;;;;3.97;3.57;;;-0.10;77.40;;;;;;4973198;28;20654;-82
2024/01/11 07:12:34;;;;;;;2.03;1.93;;;0.00;77.50;;;;;;4962072;28;20256;-81
2024/01/11 07:15:04;;;;;;;3.33;3.13;;;0.00;77.10;;;;;;4967678;28;20216;-81
2024/01/11 07:17:33;;;;;;;1.77;1.63;;;0.10;77.10;;;;;;4983300;28;20194;-80
2024/01/11 07:20:04;;;;;;;2.87;2.67;;;0.10;76.40;;;;;;4973844;28;20202;-81
2024/01/11 07:22:32;;;;;;;4.67;4.30;;;0.20;76.50;;;;;;4973893;28;20202;-80
2024/01/11 07:25:01;;;;;;;6.50;4.83;;;0.20;76.00;;;;;;4972688;28;20215;-81
2024/01/11 07:27:31;;;;;;;4.23;2.47;;;0.30;76.60;;;;;;4962592;28;20217;-82
2024/01/11 07:29:59;;;;;;;3.57;2.63;;;0.40;75.80;;;;;;4975901;28;20214;-81
2024/01/11 07:32:28;;;;;;;2.57;2.47;;;0.50;75.90;;;;;;4974760;28;20233;-81
2024/01/11 07:34:57;;;;;;;4.13;3.00;;;0.50;74.70;;;;;;4977663;28;20211;-84
2024/01/11 07:37:27;;;;;;;3.13;2.50;;;0.50;74.20;;;;;;4974989;28;20247;-82
2024/01/11 07:39:56;;;;;;;2.90;2.67;;;0.60;74.10;;;;;;4977193;28;20640;-86
2024/01/11 07:42:25;;;;;;;3.20;2.30;;;0.70;74.10;;;;;;4972290;28;20651;-83
2024/01/11 07:44:55;;;;;;;6.00;3.67;;;0.80;74.00;;;;;;4975406;28;20230;-86
2024/01/11 07:47:24;;;;;;;1.27;1.23;;;0.80;74.20;;;;;;4974863;28;20209;-87
2024/01/11 07:49:52;;;;;;;2.40;2.20;;;0.80;73.10;;;;;;4983077;28;20245;-86
2024/01/11 07:52:21;;;;;;;9.83;4.10;;;0.90;73.70;;;;;;4973034;28;20268;-84
2024/01/11 07:54:50;;;;;;;2.67;2.47;;;0.90;73.60;;;;;;4970856;28;20228;-85
2024/01/11 07:57:19;;;;;;;3.93;2.20;;;1.00;73.60;;;;;;4975166;28;20231;-84
2024/01/11 07:59:48;;;;;;;2.37;1.63;;;1.00;73.30;;;;;;4971532;28;20581;-84
2024/01/11 08:02:18;;;;;;;2.47;2.20;;;1.20;73.80;;;;;;4974285;28;20336;-83
2024/01/11 08:04:47;;;;;;;1.57;1.30;;;1.20;72.50;;;;;;4974986;28;20211;-85
2024/01/11 08:07:17;;;;;;;1.27;1.17;;;1.30;71.30;;;;;;4968818;28;20967;-83
2024/01/11 08:09:46;;;;;;;6.00;3.33;;;1.40;71.30;;;;;;4975940;28;20202;-82
2024/01/11 08:12:15;;;;;;;3.13;2.93;;;1.50;71.20;;;;;;4972664;28;20217;-82
2024/01/11 08:14:45;;;;;;;3.50;3.17;;;1.50;70.80;;;;;;4972829;28;20697;-82
2024/01/11 08:17:15;;;;;;;3.10;2.90;;;1.60;70.40;;;;;;4967185;28;20270;-82
2024/01/11 08:19:45;;;;;;;1.00;1.00;;;1.60;69.90;;;;;;4971043;28;20188;-81
2024/01/11 08:22:14;;;;;;;2.23;2.13;;;1.80;70.20;;;;;;4975304;28;20569;-82
2024/01/11 08:24:43;;;;;;;0.97;0.97;;;1.80;69.20;;;;;;4970348;28;20214;-83
2024/01/11 08:27:12;;;;;;;3.97;2.07;;;1.90;69.40;;;;;;4971426;28;20207;-85
2024/01/11 08:29:40;;;;;;;5.67;5.20;;;2.00;70.60;;;;;;4971654;28;20281;-83
2024/01/11 08:32:09;;;;;;;6.17;3.80;;;2.10;70.00;;;;;;4974557;28;20201;-84
2024/01/11 08:34:58;;;;;;;5.13;2.53;;;2.20;69.40;;;;;;4979232;28;20276;-85
2024/01/11 08:37:27;;;;;;;3.23;2.73;;;2.30;68.70;;;;;;4971532;28;20217;-83
2024/01/11 08:39:56;;;;;;;5.40;2.13;;;2.40;69.10;;;;;;4968448;28;20654;-83
2024/01/11 08:42:24;;;;;;;2.27;2.07;;;2.40;68.80;;;;;;4969757;28;20226;-83
2024/01/11 08:44:53;;;;;;;7.13;2.77;;;2.50;68.20;;;;;;4969821;28;20208;-83
2024/01/11 08:47:23;;;;;;;2.40;1.70;;;2.60;68.50;;;;;;4969391;28;20212;-84
2024/01/11 08:49:52;;;;;;;1.80;1.67;;;2.60;67.80;;;;;;4971344;28;20219;-84
2024/01/11 08:52:22;;;;;;;2.43;2.23;;;2.70;68.30;;;;;;4970714;28;20208;-86
2024/01/11 08:54:52;;;;;;;2.30;1.60;;;2.80;68.30;;;;;;4968505;28;20236;-87
2024/01/11 08:57:20;;;;;;;7.53;3.17;;;2.90;68.00;;;;;;4970316;28;20209;-85
2024/01/11 08:59:49;;;;;;;4.20;3.27;;;2.90;68.50;;;;;;4961249;28;20229;-86
2024/01/11 09:02:18;;;;;;;2.70;2.47;;;3.00;68.30;;;;;;4967427;28;20209;-85
2024/01/11 09:04:50;;;;;;;2.03;1.80;;;3.10;68.20;;;;;;4972869;28;20206;-86
2024/01/11 09:07:18;;;;;;;4.20;3.13;;;3.10;67.50;;;;;;4969950;28;20229;-87
2024/01/11 09:09:49;;;;;;;1.63;1.53;;;3.10;67.20;;;;;;4971266;28;20240;-86
2024/01/11 09:12:24;;;;;;;5.10;1.87;;;3.20;68.20;;;;;;4975859;28;20275;-87
2024/01/11 09:14:53;;;;;;;2.20;2.10;;;3.30;67.70;;;;;;4968878;28;20222;-87
2024/01/11 09:17:22;;;;;;;2.60;1.97;;;3.30;67.00;;;;;;4968962;28;20193;-90
2024/01/11 09:19:51;;;;;;;5.33;2.23;;;3.40;67.10;;;;;;4969879;28;20209;-88
2024/01/11 09:22:20;;;;;;;5.60;3.95;;;3.50;67.00;;;;;;4970897;28;20726;-86
2024/01/11 09:24:52;;;;;;;2.57;2.37;;;3.50;67.20;;;;;;4970206;28;20230;-83
2024/01/11 09:27:21;;;;;;;3.73;2.07;;;3.50;67.00;;;;;;4976134;28;20205;-83
2024/01/11 09:29:50;;;;;;;1.63;1.53;;;3.60;66.90;;;;;;4971778;28;20776;-84
2024/01/11 09:32:24;;;;;;;2.60;2.40;;;3.60;66.80;;;;;;4974372;28;20211;-85
2024/01/11 09:34:55;;;;;;;1.97;1.87;;;3.70;67.30;;;;;;4967871;28;20218;-85
2024/01/11 09:37:23;;;;;;;4.63;3.63;;;3.80;67.20;;;;;;4971154;28;20206;-82
2024/01/11 09:39:53;;;;;;;0.83;0.83;;;3.90;67.40;;;;;;4976690;28;20202;-83
2024/01/11 09:42:22;;;;;;;11.60;1.87;;;3.90;66.20;;;;;;4964575;28;20903;-84
2024/01/11 09:44:51;;;;;;;2.03;1.77;;;4.00;66.10;;;;;;4971522;28;20210;-82
2024/01/11 09:47:21;;;;;;;2.63;1.60;;;4.00;66.00;;;;;;4966277;28;20203;-82
2024/01/11 09:49:51;;;;;;;4.93;2.47;;;4.20;66.40;;;;;;4968087;28;22777;-82
2024/01/11 09:52:25;;;;;;;3.23;3.03;;;4.20;65.90;;;;;;4969881;28;20548;-82
2024/01/11 09:54:55;;;;;;;5.50;3.90;;;4.30;66.30;;;;;;4972087;28;20323;-83
2024/01/11 09:57:27;;;;;;;4.78;2.65;;;4.30;65.00;;;;;;4966886;28;20486;-83
2024/01/11 09:59:57;;;;;;;3.67;3.37;;;4.40;65.20;;;;;;4966522;28;20219;-82
2024/01/11 10:02:27;;;;;;;4.93;3.37;;;4.50;64.50;;;;;;4968099;28;20249;-82
2024/01/11 10:04:56;;;;;;;2.13;2.03;;;4.50;64.20;;;;;;4972457;28;20206;-83
2024/01/11 10:07:25;;;;;;;3.63;2.27;;;4.50;64.00;;;;;;4968071;28;20193;-83
2024/01/11 10:09:58;;;;;;;4.97;2.17;;;4.60;64.10;;;;;;4974776;28;20661;-83
2024/01/11 10:12:28;;;;;;;3.73;3.23;;;4.70;63.30;;;;;;4972881;28;20611;-85
2024/01/11 10:15:05;;;;;;;3.63;2.10;;;4.70;62.90;;;;;;4969362;28;20249;-85
2024/01/11 10:17:34;;;;;;;1.77;1.63;;;4.90;62.90;;;;;;4968056;28;20323;-91
2024/01/11 10:20:04;;;;;;;5.83;2.10;;;5.00;63.00;;;;;;4975961;28;20720;-89
2024/01/11 10:22:34;;;;;;;2.83;2.63;;;5.00;61.70;;;;;;4972923;28;20221;-88
2024/01/11 10:25:15;;;;;;;3.17;2.60;;;5.10;61.50;;;;;;4975833;28;20299;-88
2024/01/11 10:27:46;;;;;;;1.00;1.00;;;5.20;60.80;;;;;;4966300;28;20204;-85
2024/01/11 10:30:16;;;;;;;2.63;2.03;;;5.20;60.00;;;;;;4970518;28;20245;-89
2024/01/11 10:32:47;;;;;;;4.00;1.80;;;5.20;58.70;;;;;;4970996;28;20279;-85
2024/01/11 10:35:17;;;;;;;3.37;2.47;;;5.30;58.90;;;;;;4974400;28;20536;-85
2024/01/11 10:37:50;;;;;;;1.17;1.07;;;5.30;58.30;;;;;;4974464;28;20290;-88
2024/01/11 10:40:24;;;;;;;2.10;2.00;;;5.40;57.80;;;;;;4970864;28;20603;-88
2024/01/11 10:42:54;;;;;;;3.13;2.47;;;5.50;57.20;;;;;;4971152;28;20196;-86
2024/01/11 10:45:22;;;;;;;1.33;1.23;;;5.50;57.30;;;;;;4966200;28;20212;-83
2024/01/11 10:47:54;;;;;;;3.63;3.10;;;5.50;57.60;;;;;;4967039;28;20311;-84
2024/01/11 10:50:24;;;;;;;2.20;2.10;;;5.60;58.30;;;;;;4968966;28;20197;-82
2024/01/11 10:53:04;;;;;;;1.37;1.27;;;5.70;58.20;;;;;;4972518;28;20201;-83
2024/01/11 10:55:35;;;;;;;0.50;0.50;;;5.70;57.40;;;;;;4969938;28;20224;-83
2024/01/11 10:58:05;;;;;;;3.37;2.23;;;5.70;57.10;;;;;;4968078;28;20204;-82
2024/01/11 11:00:36;;;;;;;5.37;1.10;;;5.70;57.10;;;;;;4964477;28;20233;-83
2024/01/11 11:03:07;;;;;;;1.87;1.77;;;5.80;57.20;;;;;;4963843;28;20616;-82
2024/01/11 11:05:37;;;;;;;1.27;1.17;;;5.80;56.80;;;;;;4970060;28;20733;-84
2024/01/11 11:08:07;;;;;;;3.07;1.97;;;5.70;57.10;;;;;;4966452;28;20217;-83
2024/01/11 11:10:38;;;;;;;7.20;2.00;;;5.80;57.90;;;;;;4968257;28;20201;-83
2024/01/11 11:13:07;;;;;;;2.27;2.07;;;5.90;57.60;;;;;;4973102;28;20205;-83
2024/01/11 11:15:38;;;;;;;1.60;1.50;;;5.90;57.40;;;;;;4971933;28;20272;-82
2024/01/11 11:18:07;;;;;;;1.10;1.10;;;5.90;57.30;;;;;;4976677;28;20572;-84
2024/01/11 11:20:36;;;;;;;1.40;1.30;;;6.00;57.70;;;;;;4974340;28;20518;-83
2024/01/11 11:23:05;;;;;;;0.70;0.70;;;6.10;58.30;;;;;;4976576;28;20202;-82
2024/01/11 11:25:35;;;;;;;1.07;0.93;;;6.00;57.30;;;;;;4962592;28;20224;-84
2024/01/11 11:28:06;;;;;;;1.10;1.00;;;6.00;57.80;;;;;;4961180;28;20703;-82
2024/01/11 11:30:39;;;;;;;0.93;0.83;;;6.00;58.10;;;;;;4969083;28;20704;-82
2024/01/11 11:33:11;;;;;;;2.70;1.97;;;6.00;58.10;;;;;;4972704;28;20506;-82
2024/01/11 11:35:40;;;;;;;1.53;1.43;;;6.10;57.90;;;;;;4967221;28;20222;-83
2024/01/11 11:38:09;;;;;;;0.60;0.60;;;6.10;58.10;;;;;;4968198;28;20221;-82
2024/01/11 11:40:42;;;;;;;2.00;1.83;;;6.10;58.40;;;;;;4968286;28;20717;-81
2024/01/11 11:43:14;;;;;;;0.60;0.60;;;6.10;58.40;;;;;;4973627;28;20213;-83
2024/01/11 11:45:43;;;;;;;1.87;1.77;;;6.10;57.70;;;;;;4968459;28;20289;-84
2024/01/11 11:48:50;;;;;;;2.07;1.40;;;6.10;57.60;;;;;;4978177;28;20612;-83
2024/01/11 11:51:21;;;;;;;0.73;0.73;;;6.10;58.00;;;;;;4974118;28;20733;-82
2024/01/11 11:53:56;;;;;;;1.00;1.00;;;6.10;58.30;;;;;;4968333;28;20520;-85
2024/01/11 11:56:29;;;;;;;3.20;1.80;;;6.10;58.50;;;;;;4973164;28;20268;-87
2024/01/11 11:59:01;;;;;;;4.27;2.50;;;6.10;58.60;;;;;;4974634;28;20233;-87
2024/01/11 12:01:33;;;;;;;2.47;1.73;;;6.10;58.60;;;;;;4970362;28;20193;-83
2024/01/11 12:04:02;;;;;;;2.07;1.73;;;6.20;58.60;;;;;;4973511;28;20662;-87
2024/01/11 12:06:31;;;;;;;1.90;1.63;;;6.20;58.80;;;;;;4968233;28;20190;-88
2024/01/11 12:08:59;;;;;;;2.37;1.83;;;6.20;59.30;;;;;;4971402;28;20416;-89
2024/01/11 12:11:32;;;;;;;3.47;2.10;;;6.30;59.30;;;;;;4972574;28;20201;-89
2024/01/11 12:14:05;;;;;;;1.83;1.73;;;6.30;59.20;;;;;;4974990;28;20255;-87
2024/01/11 12:16:33;;;;;;;1.23;1.13;;;6.40;59.10;;;;;;4971576;28;20757;-89
2024/01/11 12:19:07;;;;;;;2.03;1.03;;;6.40;59.10;;;;;;4974677;28;20197;-88
2024/01/11 12:21:38;;;;;;;1.23;1.13;;;6.50;59.00;;;;;;4964110;28;20468;-88
2024/01/11 12:24:07;;;;;;;2.50;1.90;;;6.50;58.60;;;;;;4971441;28;20225;-88
2024/01/11 12:26:39;;;;;;;0.80;0.80;;;6.50;58.60;;;;;;4972627;28;20193;-88
2024/01/11 12:29:09;;;;;;;1.33;1.23;;;6.60;58.80;;;;;;4969673;28;20217;-85
2024/01/11 12:31:39;;;;;;;1.53;1.43;;;6.60;58.60;;;;;;4968577;28;20210;-91
2024/01/11 12:34:08;;;;;;;3.40;2.47;;;6.60;58.60;;;;;;4963906;28;20229;-85
2024/01/11 12:36:37;;;;;;;1.53;0.87;;;6.70;58.10;;;;;;4970813;28;20453;-93
2024/01/11 12:39:08;;;;;;;1.00;1.00;;;6.70;58.10;;;;;;4976100;28;20211;-91
2024/01/11 12:41:38;;;;;;;0.63;0.60;;;6.70;58.30;;;;;;4971600;28;20205;-90
2024/01/11 12:44:08;;;;;;;1.60;1.50;;;6.70;58.10;;;;;;4982793;28;20597;-90
2024/01/11 12:46:37;;;;;;;0.80;0.80;;;6.60;57.40;;;;;;4982084;28;20287;-85
2024/01/11 12:49:05;;;;;;;0.83;0.83;;;6.60;57.30;;;;;;4975156;28;20225;-88
2024/01/11 12:51:39;;;;;;;0.70;0.70;;;6.70;57.50;;;;;;4975255;28;20216;-88
2024/01/11 12:54:13;;;;;;;0.57;0.57;;;6.60;56.80;;;;;;4974898;28;20198;-86
2024/01/11 12:56:43;;;;;;;1.60;1.37;;;6.70;56.90;;;;;;4965018;28;20226;-85
2024/01/11 12:59:16;;;;;;;1.63;1.53;;;6.70;56.10;;;;;;4974746;28;20230;-88
2024/01/11 13:01:45;;;;;;;0.80;0.80;;;6.70;56.30;;;;;;4979885;28;20557;-89
2024/01/11 13:04:14;;;;;;;0.87;0.87;;;6.70;56.00;;;;;;4986047;28;20198;-93
2024/01/11 13:06:42;;;;;;;0.70;0.70;;;6.80;55.70;;;;;;4977161;28;20277;-89